Time;durP1;ratioP1;P1;durP2;ratioP2;P2;SDS_P1;SDS_P2;PMS_P1;PMS_P2;Temp;Humidity;BMP_temperature;BMP_pressure;BME280_temperature;BME280_humidity;BME280_pressure;Samples;Min_cycle;Max_cycle;Signal;HPM_P1;HPM_P2
2021/07/23 00:02:25;;;;;;;3.80;2.47;;;;;;;26.21;41.15;99642.02;1774900;79;21009;-74
2021/07/23 00:04:52;;;;;;;3.40;2.20;;;;;;;26.19;41.15;99644.20;1775333;80;21088;-72
2021/07/23 00:07:18;;;;;;;2.50;2.30;;;;;;;26.19;41.23;99649.12;1774146;80;21569;-72
2021/07/23 00:09:44;;;;;;;5.40;2.30;;;;;;;26.18;41.17;99648.02;1771736;80;21033;-73
2021/07/23 00:12:11;;;;;;;2.47;2.17;;;;;;;26.19;41.14;99656.45;1777316;80;21058;-72
2021/07/23 00:14:37;;;;;;;4.20;2.90;;;;;;;26.18;41.19;99654.27;1734738;81;21038;-73
2021/07/23 00:17:03;;;;;;;3.55;2.50;;;;;;;26.17;41.17;99655.91;1783536;80;21485;-71
2021/07/23 00:19:31;;;;;;;2.80;2.52;;;;;;;26.15;41.25;99654.00;1754797;80;22057;-69
2021/07/23 00:22:00;;;;;;;4.12;2.25;;;;;;;26.14;41.23;99654.55;1787491;80;20978;-71
2021/07/23 00:24:26;;;;;;;6.33;2.37;;;;;;;26.13;41.22;99652.10;1758014;80;21139;-72
2021/07/23 00:26:53;;;;;;;2.72;2.40;;;;;;;26.11;41.38;99657.81;1767896;80;21044;-71
2021/07/23 00:29:20;;;;;;;4.22;2.62;;;;;;;26.10;41.44;99654.83;1785019;80;21030;-74
2021/07/23 00:31:47;;;;;;;5.55;2.20;;;;;;;26.09;41.43;99652.63;1765273;80;21072;-72
2021/07/23 00:34:14;;;;;;;3.02;2.50;;;;;;;26.09;41.45;99656.72;1761939;80;21017;-72
2021/07/23 00:36:40;;;;;;;4.12;2.15;;;;;;;26.08;41.48;99655.66;1793258;80;22183;-72
2021/07/23 00:39:08;;;;;;;3.10;2.15;;;;;;;26.09;41.47;99659.44;1773693;80;21528;-71
2021/07/23 00:41:35;;;;;;;3.67;2.20;;;;;;;26.08;41.44;99653.73;1761889;81;21046;-71
2021/07/23 00:44:01;;;;;;;2.02;1.85;;;;;;;26.07;41.50;99659.45;1744620;81;21094;-71
2021/07/23 00:46:34;;;;;;;3.05;2.20;;;;;;;26.06;41.55;99658.64;1788132;80;21069;-71
2021/07/23 00:48:58;;;;;;;2.65;2.08;;;;;;;26.06;41.57;99654.56;1771335;80;21216;-71
2021/07/23 00:51:25;;;;;;;2.90;1.98;;;;;;;26.05;41.52;99652.91;1764866;80;21076;-70
2021/07/23 00:53:52;;;;;;;3.95;2.42;;;;;;;26.04;41.50;99655.38;1744649;81;21096;-72
2021/07/23 00:56:20;;;;;;;4.15;2.10;;;;;;;26.02;41.53;99654.83;1775293;80;21041;-72
2021/07/23 00:58:47;;;;;;;3.90;2.60;;;;;;;26.00;41.58;99657.02;1783530;80;21024;-71
2021/07/23 01:01:15;;;;;;;2.50;2.30;;;;;;;25.98;41.61;99656.47;1781448;80;21120;-72
2021/07/23 01:03:42;;;;;;;3.12;2.50;;;;;;;25.97;41.61;99649.94;1793289;80;21017;-72
2021/07/23 01:06:10;;;;;;;2.70;2.12;;;;;;;25.96;41.69;99651.84;1793265;80;21472;-72
2021/07/23 01:08:38;;;;;;;2.80;2.25;;;;;;;25.96;41.71;99651.84;1755772;81;21496;-72
2021/07/23 01:11:06;;;;;;;2.87;2.05;;;;;;;25.95;41.71;99646.12;1770465;80;21076;-71
2021/07/23 01:13:34;;;;;;;3.02;2.10;;;;;;;25.96;41.66;99648.28;1739435;81;21822;-71
2021/07/23 01:16:01;;;;;;;6.00;2.10;;;;;;;25.97;41.61;99650.74;1783978;80;21081;-72
2021/07/23 01:18:30;;;;;;;3.92;2.98;;;;;;;25.97;41.63;99652.66;1792259;80;20978;-71
2021/07/23 01:20:57;;;;;;;2.98;2.67;;;;;;;25.89;41.59;99632.21;1793400;80;20993;-69
2021/07/23 01:23:31;;;;;;;3.27;2.35;;;;;;;25.97;41.53;99650.74;1779347;80;21041;-70
2021/07/23 01:25:58;;;;;;;3.27;2.37;;;;;;;25.97;41.49;99656.19;1806983;78;21123;-71
2021/07/23 01:28:28;;;;;;;2.40;2.17;;;;;;;25.98;41.54;99652.91;1747487;81;21108;-69
2021/07/23 01:30:58;;;;;;;4.57;2.73;;;;;;;25.99;41.48;99651.28;1762876;80;21541;-70
2021/07/23 01:33:30;;;;;;;3.10;2.37;;;;;;;25.97;41.46;99650.74;1788662;80;21010;-69
2021/07/23 01:36:01;;;;;;;3.65;2.20;;;;;;;25.95;41.49;99652.92;1787592;80;25553;-70
2021/07/23 01:38:29;;;;;;;4.70;2.42;;;;;;;25.95;41.50;99650.75;1787303;80;21138;-72
2021/07/23 01:40:57;;;;;;;4.53;2.42;;;;;;;25.94;41.51;99648.59;1785681;80;21076;-71
2021/07/23 01:43:24;;;;;;;3.83;2.50;;;;;;;25.93;41.47;99643.41;1776568;80;21042;-71
2021/07/23 01:48:00;;;;;;;3.67;2.55;;;;;;;25.97;41.39;99652.66;1861371;76;22609;-70
2021/07/23 01:50:27;;;;;;;6.37;2.95;;;;;;;25.86;41.55;99658.08;1786561;78;20979;-71
2021/07/23 01:52:54;;;;;;;4.70;2.75;;;;;;;25.84;41.58;99653.42;1808428;78;21121;-71
2021/07/23 01:55:22;;;;;;;3.90;2.62;;;;;;;25.84;41.53;99653.97;1818225;77;20913;-70
2021/07/23 01:57:48;;;;;;;3.90;2.80;;;;;;;25.85;41.59;99654.26;1782403;78;21500;-73
2021/07/23 02:00:16;;;;;;;3.33;2.70;;;;;;;25.83;41.59;99661.88;1793229;78;21116;-72
2021/07/23 02:02:43;;;;;;;3.20;2.58;;;;;;;25.79;41.57;99657.52;1816198;78;21562;-71
2021/07/23 02:05:12;;;;;;;4.17;2.60;;;;;;;25.77;41.64;99662.41;1806649;78;21339;-71
2021/07/23 02:07:39;;;;;;;3.87;3.00;;;;;;;25.75;41.76;99657.79;1795039;78;21025;-71
2021/07/23 02:10:08;;;;;;;6.28;2.80;;;;;;;25.73;41.68;99655.88;1805069;78;21028;-71
2021/07/23 02:12:35;;;;;;;4.33;3.02;;;;;;;25.73;41.66;99651.80;1817244;78;21029;-71
2021/07/23 02:15:06;;;;;;;3.55;2.50;;;;;;;25.72;41.71;99656.15;1808073;78;21036;-71
2021/07/23 02:17:34;;;;;;;3.25;2.80;;;;;;;25.70;41.67;99653.14;1797457;78;21098;-72
2021/07/23 02:20:06;;;;;;;2.67;2.47;;;;;;;25.68;41.67;99652.59;1809573;78;21033;-72
2021/07/23 02:22:37;;;;;;;3.90;2.90;;;;;;;25.67;41.72;99650.14;1794908;78;20982;-72
2021/07/23 02:25:06;;;;;;;4.62;2.52;;;;;;;25.66;41.69;99652.05;1824538;77;20990;-72
2021/07/23 02:27:35;;;;;;;3.17;2.83;;;;;;;25.67;41.64;99654.22;1801231;78;21043;-71
2021/07/23 02:30:03;;;;;;;3.12;2.83;;;;;;;25.67;41.62;99656.42;1801347;78;21206;-72
2021/07/23 02:32:31;;;;;;;3.37;2.55;;;;;;;25.69;41.57;99655.60;1800237;78;21536;-72
2021/07/23 02:34:59;;;;;;;4.45;3.10;;;;;;;25.69;41.53;99657.48;1801217;78;21001;-72
2021/07/23 02:37:27;;;;;;;6.08;2.80;;;;;;;25.70;41.44;99652.33;1824106;78;21029;-72
2021/07/23 02:39:56;;;;;;;4.00;2.72;;;;;;;25.70;41.43;99651.78;1796436;78;21567;-71
2021/07/23 02:42:23;;;;;;;6.03;3.70;;;;;;;25.72;41.37;99656.15;1788932;78;21078;-72
2021/07/23 02:44:49;;;;;;;3.95;2.80;;;;;;;25.73;41.25;99649.08;1818563;78;21057;-72
2021/07/23 02:47:17;;;;;;;6.95;4.78;;;;;;;25.74;41.13;99653.42;1798949;79;21000;-73
2021/07/23 02:49:43;;;;;;;3.05;2.55;;;;;;;25.74;41.05;99647.17;1784958;78;21500;-72
2021/07/23 02:52:10;;;;;;;3.77;2.65;;;;;;;25.74;41.04;99644.45;1771621;78;21089;-73
2021/07/23 02:54:39;;;;;;;4.58;3.02;;;;;;;25.74;40.98;99645.26;1793857;78;21050;-71
2021/07/23 02:57:05;;;;;;;3.55;2.85;;;;;;;25.75;41.00;99648.27;1783467;78;21028;-72
2021/07/23 02:59:34;;;;;;;4.10;2.37;;;;;;;25.77;40.96;99653.41;1807878;78;21508;-70
2021/07/23 03:02:01;;;;;;;4.65;2.80;;;;;;;25.76;40.96;99650.44;1808692;79;21009;-71
2021/07/23 03:04:28;;;;;;;3.90;2.47;;;;;;;25.77;41.00;99652.89;1804670;78;21071;-72
2021/07/23 03:06:55;;;;;;;4.10;2.92;;;;;;;25.78;40.91;99656.42;1806763;79;21177;-73
2021/07/23 03:09:22;;;;;;;3.02;2.70;;;;;;;25.79;40.92;99655.34;1787312;78;21037;-72
2021/07/23 03:11:49;;;;;;;5.17;2.67;;;;;;;25.79;40.98;99656.16;1809701;78;22010;-74
2021/07/23 03:14:15;;;;;;;4.08;2.60;;;;;;;25.81;41.12;99653.17;1812271;77;21021;-73
2021/07/23 03:16:44;;;;;;;4.28;2.80;;;;;;;25.81;41.10;99657.25;1797870;77;21002;-72
2021/07/23 03:19:12;;;;;;;6.78;2.80;;;;;;;25.80;41.02;99655.05;1808659;77;22699;-73
2021/07/23 03:21:39;;;;;;;5.30;2.90;;;;;;;25.81;40.96;99650.45;1787733;79;21003;-73
2021/07/23 03:24:07;;;;;;;8.15;2.70;;;;;;;25.80;41.05;99653.69;1808853;78;21111;-70
2021/07/23 03:26:34;;;;;;;5.35;3.40;;;;;;;25.80;41.07;99652.88;1788286;78;21087;-71
2021/07/23 03:29:03;;;;;;;5.12;2.80;;;;;;;25.80;41.03;99648.80;1807973;77;21492;-71
2021/07/23 03:31:31;;;;;;;2.80;2.40;;;;;;;25.80;40.95;99651.52;1808272;78;21130;-75
2021/07/23 03:33:59;;;;;;;2.95;2.70;;;;;;;25.73;40.90;99641.44;1807851;78;21029;-75
2021/07/23 03:36:44;;;;;;;4.12;2.70;;;;;;;25.79;40.90;99658.87;1774903;79;21084;-75
2021/07/23 03:39:12;;;;;;;4.55;2.75;;;;;;;25.76;40.98;99653.96;1796021;77;21017;-76
2021/07/23 03:41:42;;;;;;;4.35;2.33;;;;;;;25.77;40.96;99655.61;1811653;79;21669;-72
2021/07/23 03:44:11;;;;;;;3.05;2.62;;;;;;;25.78;40.91;99655.06;1798281;77;21580;-74
2021/07/23 03:46:38;;;;;;;3.17;2.83;;;;;;;25.78;40.86;99657.23;1799424;77;21211;-73
2021/07/23 03:49:06;;;;;;;3.98;2.90;;;;;;;25.78;40.81;99661.31;1822960;78;21057;-73
2021/07/23 03:51:37;;;;;;;3.45;2.50;;;;;;;25.79;40.83;99664.32;1823255;77;21014;-73
2021/07/23 03:54:04;;;;;;;3.58;2.50;;;;;;;25.79;40.78;99656.70;1800226;78;21084;-73
2021/07/23 03:56:30;;;;;;;3.33;2.70;;;;;;;25.77;40.77;99652.05;1825436;78;21162;-75
2021/07/23 03:58:59;;;;;;;4.05;2.95;;;;;;;25.78;40.76;99654.51;1816791;78;21528;-74
2021/07/23 04:01:27;;;;;;;6.58;3.60;;;;;;;25.80;40.89;99657.77;1789353;78;21087;-74
2021/07/23 04:03:56;;;;;;;3.08;2.72;;;;;;;25.79;40.83;99656.16;1818535;78;21084;-73
2021/07/23 04:06:23;;;;;;;3.60;3.10;;;;;;;25.79;40.76;99654.80;1808311;77;21052;-74
2021/07/23 04:08:50;;;;;;;8.55;2.92;;;;;;;25.81;40.78;99658.06;1790790;78;21142;-75
2021/07/23 04:11:27;;;;;;;3.85;2.58;;;;;;;25.82;40.83;99657.51;1790551;78;21701;-72
2021/07/23 04:13:51;;;;;;;4.08;2.52;;;;;;;25.84;40.67;99660.77;1814777;78;21581;-72
2021/07/23 04:16:18;;;;;;;5.28;2.75;;;;;;;25.87;40.69;99660.24;1823247;77;21055;-72
2021/07/23 04:18:46;;;;;;;5.17;2.95;;;;;;;25.89;40.64;99658.87;1801606;78;21027;-73
2021/07/23 04:21:20;;;;;;;5.25;2.92;;;;;;;25.90;40.59;99660.52;1809724;78;21136;-74
2021/07/23 04:23:47;;;;;;;3.72;2.50;;;;;;;25.92;40.63;99654.00;1809913;78;21018;-72
2021/07/23 04:26:14;;;;;;;5.25;2.95;;;;;;;25.94;40.61;99653.19;1792580;78;21035;-72
2021/07/23 04:28:41;;;;;;;4.58;2.98;;;;;;;25.97;40.55;99649.94;1791632;78;21020;-72
2021/07/23 04:31:08;;;;;;;6.62;3.15;;;;;;;26.03;40.55;99651.01;1792094;78;21087;-73
2021/07/23 04:33:45;;;;;;;3.45;2.65;;;;;;;26.05;40.48;99644.75;1790454;78;21079;-72
2021/07/23 04:36:22;;;;;;;4.10;2.70;;;;;;;26.06;40.46;99649.11;1817939;78;20986;-75
2021/07/23 04:38:49;;;;;;;3.42;3.10;;;;;;;26.06;40.49;99644.22;1823446;78;21473;-74
2021/07/23 04:41:16;;;;;;;3.65;2.70;;;;;;;26.07;40.50;99648.56;1823137;77;21504;-73
2021/07/23 04:43:47;;;;;;;5.37;2.77;;;;;;;26.09;40.46;99646.38;1808027;78;21082;-71
2021/07/23 04:46:13;;;;;;;5.05;2.65;;;;;;;26.13;40.45;99646.66;1816444;78;21174;-72
2021/07/23 04:48:40;;;;;;;4.87;2.95;;;;;;;26.15;40.35;99648.55;1819728;78;21008;-72
2021/07/23 04:51:08;;;;;;;3.72;2.92;;;;;;;26.18;40.38;99649.38;1792329;78;21067;-70
2021/07/23 04:53:53;;;;;;;6.17;2.62;;;;;;;26.19;40.48;99644.20;1798990;78;21051;-76
2021/07/23 04:56:34;;;;;;;4.37;2.55;;;;;;;26.20;40.42;99645.84;1790033;78;21084;-75
2021/07/23 04:59:00;;;;;;;3.65;2.90;;;;;;;26.21;40.45;99648.81;1816427;78;21137;-75
2021/07/23 05:01:28;;;;;;;5.65;2.50;;;;;;;26.22;40.41;99649.11;1810925;78;21041;-75
2021/07/23 05:03:54;;;;;;;6.30;2.60;;;;;;;26.24;40.43;99641.48;1798377;78;21067;-74
2021/07/23 05:06:21;;;;;;;3.10;2.60;;;;;;;26.25;40.47;99645.81;1792291;78;21502;-75
2021/07/23 05:08:47;;;;;;;8.98;3.17;;;;;;;26.27;40.54;99647.75;1801441;78;21087;-74
2021/07/23 05:11:14;;;;;;;5.45;2.50;;;;;;;26.28;40.52;99649.36;1803821;77;21126;-73
2021/07/23 05:13:43;;;;;;;4.58;2.62;;;;;;;26.30;40.49;99649.91;1823321;78;21520;-74
2021/07/23 05:16:10;;;;;;;7.67;2.47;;;;;;;26.32;40.52;99654.53;1814160;78;21030;-73
2021/07/23 05:18:39;;;;;;;5.03;2.90;;;;;;;26.35;40.45;99655.88;1821227;78;21001;-73
2021/07/23 05:21:06;;;;;;;8.50;3.15;;;;;;;26.36;40.38;99652.88;1806751;78;21056;-72
2021/07/23 05:23:33;;;;;;;6.45;2.55;;;;;;;26.38;40.40;99653.97;1811089;78;21121;-73
2021/07/23 05:25:59;;;;;;;3.42;2.50;;;;;;;26.32;40.39;99645.55;1816536;78;21045;-73
2021/07/23 05:28:26;;;;;;;3.50;2.50;;;;;;;26.41;40.32;99659.69;1808547;78;21111;-73
2021/07/23 05:30:52;;;;;;;4.37;2.50;;;;;;;26.43;40.33;99663.51;1820248;78;21029;-75
2021/07/23 05:33:19;;;;;;;4.60;2.92;;;;;;;26.44;40.29;99663.23;1789010;78;21034;-73
2021/07/23 05:35:46;;;;;;;4.60;2.72;;;;;;;26.46;40.21;99660.22;1821244;78;21520;-73
2021/07/23 05:38:15;;;;;;;4.47;2.50;;;;;;;26.47;40.18;99663.23;1805525;78;21110;-73
2021/07/23 05:40:42;;;;;;;3.72;2.42;;;;;;;26.49;40.19;99663.21;1806915;78;21012;-73
2021/07/23 05:43:09;;;;;;;4.58;2.72;;;;;;;26.51;40.19;99652.05;1813222;78;21057;-74
2021/07/23 05:45:38;;;;;;;6.55;2.60;;;;;;;26.52;40.13;99650.97;1810416;77;21024;-75
2021/07/23 05:48:09;;;;;;;4.87;2.83;;;;;;;26.55;40.17;99648.23;1793793;77;21148;-73
2021/07/23 05:50:35;;;;;;;4.20;2.83;;;;;;;26.56;40.14;99654.77;1772447;78;21033;-74
2021/07/23 05:53:02;;;;;;;4.40;2.37;;;;;;;26.59;40.09;99657.51;1786958;78;21033;-74
2021/07/23 05:55:28;;;;;;;5.55;3.15;;;;;;;26.60;40.07;99654.52;1809902;77;21040;-76
2021/07/23 05:57:58;;;;;;;4.42;2.80;;;;;;;26.62;40.09;99649.60;1791954;79;21005;-75
2021/07/23 06:00:26;;;;;;;4.78;2.50;;;;;;;26.65;39.99;99657.76;1788534;77;21956;-73
2021/07/23 06:03:03;;;;;;;4.58;2.80;;;;;;;26.68;40.04;99658.58;1793558;79;21524;-76
2021/07/23 06:05:30;;;;;;;5.47;2.40;;;;;;;26.71;40.09;99659.37;1788041;79;21053;-74
2021/07/23 06:07:56;;;;;;;5.15;2.50;;;;;;;26.73;39.98;99659.91;1810016;77;21034;-75
2021/07/23 06:10:22;;;;;;;3.37;2.58;;;;;;;26.76;39.91;99663.45;1800454;77;20993;-75
2021/07/23 06:12:49;;;;;;;5.35;2.67;;;;;;;26.78;39.95;99655.01;1796006;77;21715;-74
2021/07/23 06:15:15;;;;;;;3.55;2.12;;;;;;;26.80;39.92;99654.98;1818668;77;21021;-73
2021/07/23 06:17:41;;;;;;;3.98;2.72;;;;;;;26.83;39.87;99659.89;1819228;77;21061;-75
2021/07/23 06:20:09;;;;;;;3.00;2.62;;;;;;;26.86;39.84;99657.16;1833540;77;21060;-74
2021/07/23 06:22:36;;;;;;;5.67;2.25;;;;;;;26.88;39.83;99659.86;1819153;77;21103;-75
2021/07/23 06:25:03;;;;;;;5.47;2.60;;;;;;;26.91;39.73;99659.87;1805895;77;21094;-73
2021/07/23 06:27:30;;;;;;;4.50;2.40;;;;;;;26.93;39.77;99656.88;1801195;77;21073;-75
2021/07/23 06:29:56;;;;;;;2.67;2.30;;;;;;;26.95;39.71;99658.21;1794706;77;21087;-77
2021/07/23 06:32:24;;;;;;;4.22;2.25;;;;;;;26.98;39.62;99653.55;1809993;77;21057;-75
2021/07/23 06:34:50;;;;;;;5.58;2.40;;;;;;;27.01;39.60;99654.92;1808316;77;21017;-74
2021/07/23 06:37:21;;;;;;;3.55;2.42;;;;;;;27.02;39.44;99651.92;1817258;77;21198;-73
2021/07/23 06:39:50;;;;;;;4.60;2.70;;;;;;;27.04;39.43;99651.62;1809251;78;21036;-73
2021/07/23 06:42:16;;;;;;;3.47;2.90;;;;;;;27.05;39.28;99648.62;1806972;78;21611;-72
2021/07/23 06:44:43;;;;;;;5.12;2.83;;;;;;;27.08;39.33;99641.78;1806765;77;21084;-73
2021/07/23 06:47:09;;;;;;;6.15;3.92;;;;;;;27.11;39.33;99644.52;1805503;77;21076;-73
2021/07/23 06:49:36;;;;;;;8.40;3.62;;;;;;;27.12;39.27;99642.87;1824195;77;21149;-72
2021/07/23 06:52:04;;;;;;;5.28;3.60;;;;;;;27.16;39.21;99647.20;1820346;77;21470;-73
2021/07/23 06:54:30;;;;;;;6.35;3.50;;;;;;;27.17;39.15;99632.48;1813247;77;21033;-73
2021/07/23 06:56:56;;;;;;;8.23;3.90;;;;;;;27.18;39.26;99640.39;1812852;77;21479;-69
2021/07/23 06:59:23;;;;;;;5.22;3.60;;;;;;;27.19;39.42;99632.45;1808678;77;21075;-71
2021/07/23 07:01:49;;;;;;;6.90;3.85;;;;;;;27.21;39.64;99632.98;1803704;77;21081;-70
2021/07/23 07:04:16;;;;;;;8.30;3.87;;;;;;;27.25;39.62;99634.12;1799855;77;21113;-71
2021/07/23 07:06:42;;;;;;;5.60;3.92;;;;;;;27.28;39.77;99634.65;1810209;77;20997;-72
2021/07/23 07:09:08;;;;;;;12.82;4.67;;;;;;;27.29;39.73;99633.53;1805148;77;21541;-70
2021/07/23 07:11:35;;;;;;;8.73;4.35;;;;;;;27.31;39.96;99628.61;1802817;77;20984;-71
2021/07/23 07:14:01;;;;;;;7.45;4.50;;;;;;;27.33;39.98;99634.05;1802721;77;21117;-71
2021/07/23 07:16:28;;;;;;;7.50;4.20;;;;;;;27.36;40.06;99635.41;1809000;77;21049;-71
2021/07/23 07:18:54;;;;;;;8.50;3.77;;;;;;;27.37;40.00;99633.77;1812629;77;21526;-70
2021/07/23 07:21:21;;;;;;;7.08;3.45;;;;;;;27.40;40.03;99634.55;1808079;77;21038;-71
2021/07/23 07:23:47;;;;;;;6.95;3.60;;;;;;;27.44;39.96;99633.45;1801465;77;21168;-70
2021/07/23 07:26:14;;;;;;;7.85;3.92;;;;;;;27.46;39.71;99634.78;1808387;77;21535;-70
2021/07/23 07:28:40;;;;;;;5.08;3.00;;;;;;;27.49;39.57;99635.31;1795049;77;21049;-71
2021/07/23 07:31:07;;;;;;;4.97;2.70;;;;;;;27.51;39.45;99639.41;1804709;79;21076;-71
2021/07/23 07:33:33;;;;;;;4.60;2.62;;;;;;;27.53;39.01;99636.41;1798331;77;21565;-77
2021/07/23 07:36:00;;;;;;;3.05;2.37;;;;;;;27.53;38.73;99634.48;1807575;77;21033;-79
2021/07/23 07:38:26;;;;;;;3.87;2.75;;;;;;;27.52;38.58;99628.75;1805390;78;21122;-75
2021/07/23 07:40:53;;;;;;;2.95;2.00;;;;;;;27.53;38.58;99633.67;1812143;77;20978;-75
2021/07/23 07:43:21;;;;;;;4.85;2.20;;;;;;;27.52;38.07;99635.56;1800430;77;21029;-74
2021/07/23 07:45:49;;;;;;;2.55;2.10;;;;;;;27.51;37.97;99639.97;1773450;77;21506;-79
2021/07/23 07:48:16;;;;;;;3.87;2.02;;;;;;;27.50;37.82;99630.94;1800144;77;21050;-82
2021/07/23 07:50:42;;;;;;;8.25;5.50;;;;;;;27.49;37.53;99627.97;1793872;78;21098;-83
2021/07/23 07:53:12;;;;;;;7.42;3.95;;;;;;;27.48;37.56;99627.69;1799595;78;20981;-78
2021/07/23 07:55:38;;;;;;;5.72;3.33;;;;;;;27.48;37.59;99630.41;1793004;78;21087;-86
2021/07/23 07:58:05;;;;;;;3.95;3.00;;;;;;;27.48;37.38;99631.78;1782666;78;20993;-82
2021/07/23 08:00:31;;;;;;;4.78;2.35;;;;;;;27.47;37.43;99630.16;1789028;78;21334;-75
2021/07/23 08:02:57;;;;;;;5.78;2.58;;;;;;;27.47;37.36;99632.89;1795630;79;21153;-74
2021/07/23 08:05:23;;;;;;;5.95;2.27;;;;;;;27.46;37.27;99636.70;1789564;78;21029;-71
2021/07/23 08:07:50;;;;;;;3.30;2.25;;;;;;;27.44;37.29;99632.08;1794785;78;21111;-71
2021/07/23 08:10:19;;;;;;;3.95;2.30;;;;;;;27.44;37.32;99636.98;1793884;78;21497;-70
2021/07/23 08:12:45;;;;;;;2.90;1.90;;;;;;;27.46;37.04;99633.97;1792023;78;21079;-68
2021/07/23 08:15:12;;;;;;;3.72;2.35;;;;;;;27.48;37.19;99626.87;1797048;79;21521;-69
2021/07/23 08:17:38;;;;;;;3.33;1.70;;;;;;;27.50;36.62;99641.05;1797271;78;20994;-68
2021/07/23 08:20:07;;;;;;;2.08;1.87;;;;;;;27.52;36.43;99637.48;1794083;78;21555;-68
2021/07/23 08:22:33;;;;;;;3.27;1.82;;;;;;;27.54;36.26;99636.09;1789540;78;21093;-68
2021/07/23 08:25:00;;;;;;;2.37;1.65;;;;;;;27.55;36.13;99632.28;1793218;78;21123;-69
2021/07/23 08:27:28;;;;;;;2.92;1.98;;;;;;;27.56;36.02;99633.09;1789957;79;21783;-68
2021/07/23 08:29:55;;;;;;;3.75;1.90;;;;;;;27.58;36.11;99636.34;1797590;78;21062;-70
2021/07/23 08:32:22;;;;;;;3.95;1.80;;;;;;;27.59;36.00;99643.45;1791209;78;21019;-69
2021/07/23 08:34:50;;;;;;;1.95;1.65;;;;;;;27.59;36.18;99641.53;1793985;78;21608;-68
2021/07/23 08:37:16;;;;;;;2.10;1.90;;;;;;;27.60;36.41;99639.08;1766061;78;21027;-66
2021/07/23 08:39:43;;;;;;;1.82;1.60;;;;;;;27.62;36.38;99636.88;1787361;78;21109;-68
2021/07/23 08:42:30;;;;;;;3.77;1.77;;;;;;;27.63;36.16;99634.41;1791839;78;21061;-69
2021/07/23 08:44:58;;;;;;;3.33;1.62;;;;;;;27.67;35.98;99638.74;1787460;78;20999;-69
2021/07/23 08:47:24;;;;;;;2.95;1.90;;;;;;;27.68;36.07;99632.73;1788040;78;21127;-69
2021/07/23 08:49:53;;;;;;;2.17;1.67;;;;;;;27.70;36.37;99625.07;1798581;77;21024;-69
2021/07/23 08:52:42;;;;;;;3.10;1.85;;;;;;;27.72;36.10;99631.89;1806699;77;21022;-69
2021/07/23 08:55:12;;;;;;;4.55;1.90;;;;;;;27.75;35.71;99629.94;1787427;77;21077;-70
2021/07/23 08:57:38;;;;;;;3.47;2.00;;;;;;;27.75;35.72;99635.41;1808000;77;20991;-71
2021/07/23 09:00:11;;;;;;;2.33;2.12;;;;;;;27.76;35.82;99634.87;1807927;77;20986;-70
2021/07/23 09:02:54;;;;;;;5.12;2.30;;;;;;;27.75;35.75;99629.94;1799567;77;21046;-70
2021/07/23 09:05:28;;;;;;;;;;;;;;;27.76;36.12;99627.50;1811846;77;21056;-71
2021/07/23 09:08:01;;;;;;;2.95;2.10;;;;;;;27.79;36.08;99631.55;1798203;77;20546;-69
2021/07/23 09:10:30;;;;;;;;;;;;;;;27.75;36.24;99629.94;1804733;77;21084;-66
2021/07/23 09:13:01;;;;;;;4.37;1.82;;;;;;;27.78;36.14;99623.12;1807305;78;20509;-67
2021/07/23 09:15:38;;;;;;;3.62;1.98;;;;;;;27.76;36.38;99615.77;1806278;77;21025;-73
2021/07/23 09:18:06;;;;;;;3.87;2.10;;;;;;;27.80;36.04;99623.65;1813949;77;21088;-74
2021/07/23 09:20:33;;;;;;;3.12;2.30;;;;;;;27.85;35.82;99615.39;1803802;77;21586;-72
2021/07/23 09:23:01;;;;;;;3.52;2.08;;;;;;;27.89;35.50;99613.75;1792449;77;21129;-71
2021/07/23 09:25:43;;;;;;;2.62;1.95;;;;;;;27.94;35.67;99616.45;1804772;77;21008;-71
2021/07/23 09:28:26;;;;;;;4.10;2.17;;;;;;;28.00;36.23;99614.48;1806004;77;21016;-68
2021/07/23 09:30:55;;;;;;;2.62;2.30;;;;;;;28.03;36.39;99609.27;1807627;77;21114;-69
2021/07/23 09:33:33;;;;;;;2.87;2.20;;;;;;;28.08;35.70;99615.23;1801361;77;21002;-70
2021/07/23 09:36:03;;;;;;;4.25;2.05;;;;;;;28.11;35.59;99607.03;1796589;77;21092;-69
2021/07/23 09:38:47;;;;;;;3.27;2.15;;;;;;;28.17;35.60;99609.97;1802038;77;21049;-75
2021/07/23 09:41:27;;;;;;;;;;;;;;;28.22;35.34;99605.80;1804287;77;21068;-73
2021/07/23 09:44:11;;;;;;;3.70;1.90;;;;;;;28.26;35.83;99599.22;1804258;77;21826;-75
2021/07/23 09:46:47;;;;;;;3.27;2.10;;;;;;;28.22;35.72;99596.24;1807324;77;21104;-75
2021/07/23 09:49:28;;;;;;;2.22;2.02;;;;;;;28.28;35.52;99595.64;1810413;77;21032;-72
2021/07/23 09:51:56;;;;;;;3.95;1.98;;;;;;;28.33;35.42;99597.77;1811546;77;21063;-73
2021/07/23 09:54:22;;;;;;;3.90;2.00;;;;;;;28.37;35.30;99593.91;1808464;77;21157;-73
2021/07/23 09:56:49;;;;;;;5.67;2.22;;;;;;;28.43;35.62;99590.85;1805020;77;21101;-73
2021/07/23 09:59:43;;;;;;;4.22;2.70;;;;;;;28.49;35.94;99583.94;1809106;77;20982;-72
2021/07/23 10:02:17;;;;;;;7.35;2.98;;;;;;;28.53;36.18;99576.81;1804990;77;21010;-71
2021/07/23 10:05:00;;;;;;;3.35;2.10;;;;;;;28.58;35.55;99579.50;1804624;78;20993;-71
2021/07/23 10:07:29;;;;;;;4.12;2.20;;;;;;;28.62;35.86;99577.80;1811311;77;21115;-73
2021/07/23 10:09:57;;;;;;;5.25;2.45;;;;;;;28.68;35.66;99572.53;1756063;79;21120;-70
2021/07/23 10:12:23;;;;;;;3.65;2.33;;;;;;;28.72;35.70;99572.20;1809445;77;21076;-71
2021/07/23 10:14:49;;;;;;;5.72;3.02;;;;;;;28.78;36.01;99572.95;1811947;77;21563;-73
2021/07/23 10:17:16;;;;;;;4.45;2.50;;;;;;;28.81;36.33;99570.45;1812332;77;20998;-71
2021/07/23 10:19:42;;;;;;;3.98;2.80;;;;;;;28.87;35.80;99571.77;1812967;77;20997;-70
2021/07/23 10:22:13;;;;;;;4.17;2.80;;;;;;;28.93;36.35;99574.68;1811864;77;21091;-72
2021/07/23 10:24:41;;;;;;;5.35;2.92;;;;;;;28.97;36.46;99579.25;1812027;77;21493;-68
2021/07/23 10:27:10;;;;;;;4.35;2.60;;;;;;;29.02;37.25;99574.29;1806678;77;21085;-71
2021/07/23 10:29:47;;;;;;;5.15;2.70;;;;;;;29.07;37.45;99571.49;1810795;77;21027;-70
2021/07/23 10:32:30;;;;;;;4.83;2.95;;;;;;;29.12;37.59;99569.23;1811935;78;21574;-69
2021/07/23 10:34:57;;;;;;;;;;;;;;;29.18;37.51;99570.24;1811107;77;21801;-71
2021/07/23 10:37:35;;;;;;;4.25;2.72;;;;;;;29.23;37.11;99557.63;1805340;77;20200;-70
2021/07/23 10:40:12;;;;;;;3.12;2.50;;;;;;;29.21;37.25;99562.02;1809768;78;21575;-70
2021/07/23 10:42:42;;;;;;;4.90;2.20;;;;;;;29.25;37.21;99560.31;1811919;77;21504;-72
2021/07/23 10:45:12;;;;;;;3.30;2.17;;;;;;;29.30;37.19;99562.15;1810742;77;21017;-71
2021/07/23 10:47:46;;;;;;;3.70;2.12;;;;;;;29.34;37.10;99563.17;1768644;79;21732;-70
2021/07/23 10:50:27;;;;;;;5.12;2.65;;;;;;;29.39;36.50;99562.55;1820477;77;21001;-70
2021/07/23 10:52:53;;;;;;;3.42;2.25;;;;;;;29.43;36.60;99561.39;1817698;78;21033;-75
2021/07/23 10:55:27;;;;;;;3.37;2.30;;;;;;;29.49;36.65;99562.94;1817185;77;21039;-74
2021/07/23 10:58:11;;;;;;;3.58;2.30;;;;;;;29.54;36.73;99556.58;1823288;78;21517;-72
2021/07/23 11:00:51;;;;;;;3.55;2.55;;;;;;;29.59;36.74;99551.00;1817599;77;21121;-73
2021/07/23 11:03:42;;;;;;;3.05;2.40;;;;;;;29.64;36.75;99556.97;1815201;78;21111;-72
2021/07/23 11:06:23;;;;;;;4.08;2.47;;;;;;;29.67;36.72;99547.61;1824688;77;21060;-73
2021/07/23 11:08:53;;;;;;;5.33;2.40;;;;;;;29.71;36.76;99549.16;1820673;77;21048;-73
2021/07/23 11:11:23;;;;;;;2.90;2.35;;;;;;;29.74;36.78;99542.56;1820298;77;21092;-71
2021/07/23 11:13:50;;;;;;;2.52;2.10;;;;;;;29.78;36.78;99539.48;1817528;77;23151;-72
2021/07/23 11:16:19;;;;;;;3.95;2.72;;;;;;;29.83;36.77;99536.42;1814446;77;21538;-73
2021/07/23 11:19:01;;;;;;;2.40;2.20;;;;;;;29.87;36.75;99536.07;1810623;77;20978;-75
2021/07/23 11:21:36;;;;;;;3.07;2.40;;;;;;;29.91;36.73;99535.72;1815145;77;21120;-71
2021/07/23 11:24:14;;;;;;;3.58;2.40;;;;;;;29.95;36.71;99536.73;1820354;77;21529;-73
2021/07/23 11:26:52;;;;;;;2.70;2.30;;;;;;;29.99;36.69;99534.45;1819860;77;21139;-74
2021/07/23 11:29:37;;;;;;;3.75;2.30;;;;;;;30.05;36.57;99534.36;1817209;77;21146;-74
2021/07/23 11:32:10;;;;;;;2.40;2.20;;;;;;;30.07;36.53;99530.19;1820795;77;21017;-75
2021/07/23 11:34:44;;;;;;;2.17;2.00;;;;;;;30.10;36.48;99532.34;1811484;77;21080;-74
2021/07/23 11:37:23;;;;;;;2.45;2.20;;;;;;;30.14;36.43;99527.07;1814743;78;21119;-73
2021/07/23 11:39:57;;;;;;;2.42;2.22;;;;;;;30.17;36.34;99533.30;1821392;77;21363;-73
2021/07/23 11:42:26;;;;;;;2.65;2.45;;;;;;;30.21;36.34;99523.38;1819588;78;21052;-73
2021/07/23 11:45:00;;;;;;;2.65;2.35;;;;;;;30.23;36.28;99523.88;1819258;77;21084;-74
2021/07/23 11:47:38;;;;;;;3.90;2.42;;;;;;;30.25;36.20;99521.66;1807489;77;21552;-73